world map with CYBV marked

CYBV - Airport

This information may not be accurate or current and is not valid for navigation or flight planning. No warranty of fitness for any purpose is made or implied.

flag of Manitobaflag of Canada

Donate via PayPal

Additional information is available on the NEW Great Circle Mapper

Location
City:  Berens River, Manitoba, Canada
ICAO / IATA:CYBV / YBV

Details
Type:Airport (Airfield)
Latitude:52°21'32"N (52.358889)
Longitude:97°01'00"W (-97.016666)
Elevation:728 ft (222 m)
Runways:1
Longest:2900 ft (884 m)

Time
Timezone:UTC+28:08 (DST+31:08)
Local Time:

Weather
METAR:CYBV  041400Z 02003KT 340V050 15SM BKN130 BKN220 M29/M32 A3031 RMK AC5CS1 SLP297

Related Locations
Nearby:
Farthest:YWKS: 11045 mi / 17776 km
Wilkins Runway (Casey), Upper Peterson Glacier, AQ

Find:

   beyond  
but within

Other Information
Maps:
Sources:

  


 


Great Circle Mapper   Great Circle Mapper
Great Circle Mapper FAQ   Great Circle Mapper FAQ
  Karl's Home Page
KLSē   KLSē Home
   GC on Facebook
Airlines of the World   Airlines of the World
Donate via PayPal


Copyright © 2004-2019, Karl L. Swartz. All rights reserved.
All trademarks mentioned herein belong to their respective owners.

Please see credits for attribution and copyright information.

Karl Swartz <karl@kls2.com>
  Powered by FreeBSD
Valid HTML 4.01!
Labeled with ICRA
hCard Microformat
Geo Microformat